ADDS METAR Data INFO
IDs: Format: Raw Decoded Include TAF

Data at: 1551 UTC 12 Dec 2017

KMWM 121535Z AUTO 23007KT 10SM M07/M14 A3017 RMK AO2 TSNO
KMWM 121515Z AUTO 22008KT 10SM M08/M15 A3017 RMK AO2 TSNO
KMWM 121455Z AUTO 23006KT 10SM M09/M16 A3018 RMK AO2 TSNO
KMWM 121435Z AUTO 24006KT 10SM M11/M17 A3019 RMK AO2 TSNO
KMWM 121415Z AUTO 23006KT 10SM CLR M11/M17 A3018 RMK AO2 TSNO
KMWM 121355Z AUTO 24003KT 10SM CLR M12/M18 A3021 RMK AO2 TSNO
KMWM 121335Z AUTO 27005KT 10SM CLR M12/M18 A3021 RMK AO2 TSNO
KMWM 121315Z AUTO 28005KT 10SM M11/M17 A3022 RMK AO2 TSNO
KMWM 121255Z AUTO 29008KT 10SM M12/M18 A3022 RMK AO2 TSNO
KMWM 121235Z AUTO 29009KT 10SM M12/M18 A3022 RMK AO2 TSNO
KMWM 121215Z AUTO 29008KT 10SM M12/M18 A3023 RMK AO2 TSNO
KMWM 121155Z AUTO 28007KT 10SM M12/M18 A3023 RMK AO2 TSNO
KMWM 121135Z AUTO 29008KT 10SM M12/M18 A3024 RMK AO2 TSNO
KMWM 121115Z AUTO 30008KT 10SM M12/M18 A3025 RMK AO2 TSNO
KMWM 121055Z AUTO 30010KT 10SM M12/M18 A3024 RMK AO2 TSNO
KMWM 121035Z AUTO 30008KT 10SM M12/M18 A3024 RMK AO2 TSNO
KMWM 121015Z AUTO 30008KT 10SM M12/M18 A3025 RMK AO2 TSNO
KMWM 120955Z AUTO 31011KT 10SM M11/M18 A3026 RMK AO2 TSNO
KMWM 120935Z AUTO 31009KT 10SM M11/M18 A3026 RMK AO2 TSNO
KMWM 120915Z AUTO 30010KT 10SM M11/M18 A3026 RMK AO2 TSNO
KMWM 120855Z AUTO 30011KT 10SM M11/M18 A3026 RMK AO2 TSNO
KMWM 120835Z AUTO 30011KT 10SM M11/M17 A3027 RMK AO2 TSNO
KMWM 120815Z AUTO 30012G16KT 10SM M11/M17 A3027 RMK AO2 TSNO
KMWM 120755Z AUTO 30012KT 10SM M11/M17 A3027 RMK AO2 TSNO
KMWM 120735Z AUTO 30011KT 10SM M11/M17 A3028 RMK AO2 TSNO
KMWM 120715Z AUTO 30013G19KT 10SM M11/M17 A3028 RMK AO2 TSNO
KMWM 120655Z AUTO 30014G21KT 10SM M11/M17 A3027 RMK AO2 TSNO
KMWM 120635Z AUTO 30016G21KT 10SM M11/M17 A3027 RMK AO2 TSNO
KMWM 120615Z AUTO 31015G21KT 10SM M11/M17 A3027 RMK AO2 TSNO
KMWM 120555Z AUTO 31017KT 10SM M10/M17 A3027 RMK AO2 TSNO
KMWM 120535Z AUTO 31018KT 10SM M10/M17 A3027 RMK AO2 TSNO
KMWM 120515Z AUTO 31017G24KT 10SM M10/M17 A3027 RMK AO2 TSNO
KMWM 120455Z AUTO 31019KT 10SM M10/M17 A3027 RMK AO2 TSNO
KMWM 120435Z AUTO 31016G24KT 10SM M10/M17 A3027 RMK AO2 TSNO
KMWM 120415Z AUTO 31018G22KT 10SM M09/M17 A3026 RMK AO2 TSNO
KMWM 120355Z AUTO 31020KT 10SM M09/M17 A3026 RMK AO2 TSNO
KMWM 120335Z AUTO 32015G20KT 10SM M10/M16 A3025 RMK AO2 TSNO
KMWM 120315Z AUTO 32017G22KT 10SM M09/M16 A3025 RMK AO2 TSNO
KMWM 120255Z AUTO 32021G27KT 10SM M09/M16 A3025 RMK AO2 TSNO
KMWM 120235Z AUTO 32016G24KT 10SM M09/M15 A3025 RMK AO2 TSNO
KMWM 120215Z AUTO 32020G23KT 10SM M08/M15 A3023 RMK AO2 TSNO
KMWM 120155Z AUTO 32021G28KT 10SM M08/M14 A3022 RMK AO2 TSNO
KMWM 120135Z AUTO 33020G29KT 10SM M08/M14 A3021 RMK AO2 TSNO
KMWM 120115Z AUTO 32017G27KT 10SM M07/M14 A3020 RMK AO2 TSNO
KMWM 120055Z AUTO 32026G35KT 10SM M07/M14 A3019 RMK AO2 TSNO
KMWM 120035Z AUTO 32028G32KT 10SM M06/M13 A3017 RMK AO2 TSNO
KMWM 120015Z AUTO 32026G33KT 10SM M06/M13 A3015 RMK AO2 TSNO
KMWM 112355Z AUTO 31023G28KT 10SM M05/M12 A3014 RMK AO2 TSNO
KMWM 112335Z AUTO 32023G31KT 10SM M05/M12 A3013 RMK AO2 TSNO
KMWM 112315Z AUTO 31025G33KT 10SM M05/M12 A3012 RMK AO2 TSNO
KMWM 112255Z AUTO 32020G32KT 10SM M04/M12 A3011 RMK AO2 TSNO
KMWM 112235Z AUTO 32030G37KT 10SM M04/M12 A3009 RMK AO2 TSNO
KMWM 112215Z AUTO 33030G38KT 10SM M04/M11 A3007 RMK AO2 TSNO
KMWM 112155Z AUTO 32030G40KT 10SM M03/M10 A3006 RMK AO2 TSNO
KMWM 112135Z AUTO 32031G36KT 10SM M03/M09 A3004 RMK AO2 TSNO
KMWM 112115Z AUTO 32029G33KT 10SM M02/M09 A3002 RMK AO2 TSNO
KMWM 112055Z AUTO 32024G34KT 10SM M02/M08 A3001 RMK AO2 TSNO
KMWM 112035Z AUTO 32030G36KT 10SM M01/M08 A2999 RMK AO2 TSNO
KMWM 112015Z AUTO 32026G41KT 10SM M01/M08 A2998 RMK AO2 TSNO
KMWM 111955Z AUTO 32030G39KT 10SM M01/M08 A2996 RMK AO2 TSNO
KMWM 111935Z AUTO 32030G40KT 10SM M01/M07 A2994 RMK AO2 TSNO
KMWM 111855Z AUTO 32026G33KT 10SM 00/M07 A2990 RMK AO2 TSNO
KMWM 111835Z AUTO 32030G36KT 10SM 00/M06 A2989 RMK AO2 TSNO
KMWM 111815Z AUTO 31027G36KT 10SM 01/M06 A2988 RMK AO2 TSNO
KMWM 111755Z AUTO 32023G33KT 10SM 02/M05 A2987 RMK AO2 TSNO
KMWM 111735Z AUTO 32026G37KT 10SM 02/M04 A2986 RMK AO2 TSNO
KMWM 111715Z AUTO 32023G33KT 2 1/2SM RA 02/M05 A2985 RMK AO2 TSNO
KMWM 111655Z AUTO 32027G32KT 4SM -RA 02/M04 A2984 RMK AO2 TSNO
KMWM 111635Z AUTO 32026G29KT 10SM -SN 03/M04 A2983 RMK AO2 TSNO
KMWM 111616Z AUTO 31019G25KT 10SM -DZ 03/M04 A2982 RMK AO2 TSNO
KMWM 111555Z AUTO 31022G30KT 10SM -DZ 03/M04 A2980 RMK AO2 TSNO
KMWM 111535Z AUTO 31018G26KT 10SM 03/M04 A2979 RMK AO2 TSNO
KMWM 111515Z AUTO 30016G24KT 10SM 03/M04 A2977 RMK AO2 TSNO
KMWM 111455Z AUTO 29017KT 10SM 02/M04 A2976 RMK AO2 TSNO
KMWM 111435Z AUTO 29016G21KT 10SM 02/M04 A2976 RMK AO2 TSNO
KMWM 111415Z AUTO 30016G23KT 10SM -RA 02/M04 A2976 RMK AO2 TSNO
KMWM 111355Z AUTO 30018G27KT 7SM DZ 02/M04 A2975 RMK AO2 TSNO
KMWM 111335Z AUTO 30023G28KT 10SM 03/M04 A2974 RMK AO2 TSNO
KMWM 111315Z AUTO 29017G21KT 10SM 03/M06 A2973 RMK AO2 TSNO
KMWM 111255Z AUTO 29017KT 10SM 02/M06 A2973 RMK AO2 TSNO
KMWM 111235Z AUTO 28015G19KT 10SM 02/M06 A2973 RMK AO2 TSNO
KMWM 111215Z AUTO 27012KT 10SM 02/M07 A2973 RMK AO2 TSNO
KMWM 111155Z AUTO 25010KT 10SM 01/M07 A2973 RMK AO2 TSNO
KMWM 111135Z AUTO 26008KT 10SM 02/M06 A2974 RMK AO2 TSNO
KMWM 111115Z AUTO 25007KT 10SM 02/M06 A2973 RMK AO2 TSNO
KMWM 111055Z AUTO 23009KT 10SM 02/M06 A2973 RMK AO2 TSNO
KMWM 111035Z AUTO 22007KT 10SM CLR 01/M07 A2975 RMK AO2 TSNO
KMWM 111015Z AUTO 22006KT 10SM 01/M07 A2976 RMK AO2 TSNO
KMWM 110955Z AUTO 22005KT 10SM 01/M07 A2977 RMK AO2 TSNO
KMWM 110935Z AUTO 23005KT 10SM 01/M07 A2978 RMK AO2 TSNO
KMWM 110915Z AUTO 21008KT 10SM 01/M07 A2980 RMK AO2 TSNO
KMWM 110855Z AUTO 22008KT 10SM 01/M07 A2981 RMK AO2 TSNO
KMWM 110835Z AUTO 22009KT 10SM 01/M07 A2983 RMK AO2 TSNO
KMWM 110815Z AUTO 22007KT 10SM 01/M06 A2985 RMK AO2 TSNO
KMWM 110755Z AUTO 22006KT 10SM 01/M07 A2986 RMK AO2 TSNO
KMWM 110735Z AUTO 21006KT 10SM 01/M07 A2987 RMK AO2 TSNO
KMWM 110715Z AUTO 22006KT 10SM 01/M07 A2987 RMK AO2 TSNO
KMWM 110655Z AUTO 21006KT 10SM 01/M06 A2987 RMK AO2 TSNO
KMWM 110635Z AUTO 20008KT 10SM 01/M06 A2988 RMK AO2 TSNO
KMWM 110615Z AUTO 19005KT 10SM 01/M06 A2989 RMK AO2 TSNO
KMWM 110555Z AUTO 18003KT 10SM 00/M07 A2992 RMK AO2 TSNO
KMWM 110535Z AUTO 21005KT 10SM M01/M07 A2993 RMK AO2 TSNO
KMWM 110515Z AUTO 20004KT 10SM 00/M07 A2993 RMK AO2 TSNO
KMWM 110455Z AUTO 20004KT 10SM 00/M07 A2994 RMK AO2 TSNO
KMWM 110435Z AUTO 19003KT 10SM 01/M07 A2995 RMK AO2 TSNO
KMWM 110415Z AUTO 00000KT 10SM 00/M07 A2996 RMK AO2 TSNO
KMWM 110355Z AUTO 18003KT 10SM 00/M07 A2996 RMK AO2 TSNO